Time;durP1;ratioP1;P1;durP2;ratioP2;P2;SDS_P1;SDS_P2;PMS_P1;PMS_P2;Temp;Humidity;BMP_temperature;BMP_pressure;BME280_temperature;BME280_humidity;BME280_pressure;Samples;Min_cycle;Max_cycle;Signal;HPM_P1;HPM_P2
2023/01/01 00:01:18;;;;;;;65.07;28.03;;;;;;;;;;5076076;27;89575;-70
2023/01/01 00:03:47;;;;;;;51.30;21.42;;;;;;;;;;5077189;27;89134;-70
2023/01/01 00:06:14;;;;;;;46.50;14.07;;;;;;;;;;5074572;27;90692;-70
2023/01/01 00:08:40;;;;;;;35.35;13.77;;;;;;;;;;5055369;27;89824;-71
2023/01/01 00:11:08;;;;;;;24.45;11.30;;;;;;;;;;5069423;27;89216;-71
2023/01/01 00:13:35;;;;;;;28.38;12.98;;;;;;;;;;5058809;27;89105;-68
2023/01/01 00:16:03;;;;;;;30.27;14.23;;;;;;;;;;5076128;27;89526;-68
2023/01/01 00:18:29;;;;;;;32.17;14.05;;;;;;;;;;5077842;27;90086;-69
2023/01/01 00:21:02;;;;;;;35.45;17.30;;;;;;;;;;5072825;27;89641;-68
2023/01/01 00:23:29;;;;;;;45.90;20.88;;;;;;;;;;5068720;27;89521;-68
2023/01/01 00:25:55;;;;;;;40.92;16.75;;;;;;;;;;5076031;27;90203;-68
2023/01/01 00:28:21;;;;;;;32.75;16.17;;;;;;;;;;5076916;27;89617;-68
2023/01/01 00:30:48;;;;;;;38.92;17.48;;;;;;;;;;5074300;27;89025;-68
2023/01/01 00:33:14;;;;;;;39.72;21.73;;;;;;;;;;5086340;27;89894;-71
2023/01/01 00:35:40;;;;;;;39.35;16.55;;;;;;;;;;5071551;27;89975;-70
2023/01/01 00:38:07;;;;;;;27.88;16.02;;;;;;;;;;5057381;27;90125;-69
2023/01/01 00:40:33;;;;;;;37.55;16.63;;;;;;;;;;5055949;27;89630;-68
2023/01/01 00:42:59;;;;;;;32.97;11.52;;;;;;;;;;5075300;27;91916;-68
2023/01/01 00:45:26;;;;;;;25.23;11.43;;;;;;;;;;5074826;27;90266;-68
2023/01/01 00:47:52;;;;;;;21.50;9.57;;;;;;;;;;5055675;27;89343;-68
2023/01/01 00:50:19;;;;;;;27.83;10.18;;;;;;;;;;5072447;27;88973;-70
2023/01/01 00:52:47;;;;;;;26.05;9.68;;;;;;;;;;5057879;27;89162;-69
2023/01/01 00:55:14;;;;;;;28.60;9.13;;;;;;;;;;5079721;27;88913;-69
2023/01/01 00:57:40;;;;;;;27.23;8.82;;;;;;;;;;5056023;27;88458;-68
2023/01/01 01:00:07;;;;;;;24.05;8.43;;;;;;;;;;5082537;27;88170;-67
2023/01/01 01:02:33;;;;;;;19.98;7.32;;;;;;;;;;5075085;27;89769;-67
2023/01/01 01:05:02;;;;;;;25.13;8.15;;;;;;;;;;5077598;27;88242;-68
2023/01/01 01:07:32;;;;;;;30.08;7.28;;;;;;;;;;5076452;27;89192;-68
2023/01/01 01:09:58;;;;;;;25.90;7.17;;;;;;;;;;5065507;27;89633;-68
2023/01/01 01:12:24;;;;;;;19.92;6.63;;;;;;;;;;5077279;27;88242;-69
2023/01/01 01:14:50;;;;;;;24.58;5.95;;;;;;;;;;5076076;27;88975;-70
2023/01/01 01:17:17;;;;;;;23.33;5.53;;;;;;;;;;5080041;27;88895;-71
2023/01/01 01:19:43;;;;;;;21.23;6.32;;;;;;;;;;5058266;27;88702;-71
2023/01/01 01:22:09;;;;;;;20.05;6.60;;;;;;;;;;5058856;27;88994;-70
2023/01/01 21:56:39;;;;;;;17.15;6.57;;;;;;;;;;5054722;27;86486;-66
2023/01/01 21:59:25;;;;;;;9.18;5.43;;;;;;;;;;5053635;27;86710;-66
2023/01/01 22:02:04;;;;;;;13.32;6.55;;;;;;;;;;5052663;27;87136;-66
2023/01/01 22:04:41;;;;;;;12.95;6.32;;;;;;;;;;5049160;27;87434;-66
2023/01/01 22:07:27;;;;;;;14.07;6.78;;;;;;;;;;5053161;27;88094;-66
2023/01/01 22:10:13;;;;;;;10.00;5.88;;;;;;;;;;5055000;27;87405;-66
2023/01/01 22:12:39;;;;;;;11.30;5.30;;;;;;;;;;5055222;27;88794;-66
2023/01/01 22:15:20;;;;;;;7.88;5.45;;;;;;;;;;5051995;27;87879;-66
2023/01/01 22:17:47;;;;;;;9.32;5.60;;;;;;;;;;5038039;28;87515;-66
2023/01/01 22:20:23;;;;;;;10.85;5.57;;;;;;;;;;5033533;27;88850;-67
2023/01/01 22:22:49;;;;;;;12.05;5.82;;;;;;;;;;5047590;27;87386;-66
2023/01/01 22:25:25;;;;;;;16.08;6.70;;;;;;;;;;5048022;27;87384;-66
2023/01/01 22:27:51;;;;;;;14.32;6.38;;;;;;;;;;5048095;27;87400;-66
2023/01/01 22:30:17;;;;;;;13.68;6.45;;;;;;;;;;5048832;27;88356;-66
2023/01/01 22:32:54;;;;;;;14.00;5.85;;;;;;;;;;5050450;27;88610;-66
2023/01/01 22:35:28;;;;;;;10.77;5.30;;;;;;;;;;5049517;27;87994;-67
2023/01/01 22:37:55;;;;;;;12.07;5.20;;;;;;;;;;5053907;27;87611;-66
2023/01/01 22:40:26;;;;;;;16.08;6.03;;;;;;;;;;5057488;27;87325;-66
2023/01/01 22:42:52;;;;;;;17.40;5.85;;;;;;;;;;5053888;27;87518;-66
2023/01/01 22:45:19;;;;;;;10.88;5.05;;;;;;;;;;5053718;27;87515;-67
2023/01/01 22:47:45;;;;;;;15.55;6.28;;;;;;;;;;5052426;27;87930;-66
2023/01/01 22:50:18;;;;;;;12.90;5.97;;;;;;;;;;5049697;27;87653;-67
2023/01/01 22:52:44;;;;;;;13.75;5.80;;;;;;;;;;5045111;27;87552;-67
2023/01/01 22:55:11;;;;;;;12.60;5.38;;;;;;;;;;5046665;27;89028;-66
2023/01/01 22:57:37;;;;;;;24.25;5.93;;;;;;;;;;5050257;27;87301;-66
2023/01/01 23:00:04;;;;;;;17.52;5.82;;;;;;;;;;5050590;27;88353;-66
2023/01/01 23:02:30;;;;;;;13.65;6.07;;;;;;;;;;5052520;27;88115;-66
2023/01/01 23:04:57;;;;;;;15.18;5.68;;;;;;;;;;5053509;27;87578;-67
2023/01/01 23:07:23;;;;;;;13.65;5.97;;;;;;;;;;5044175;27;87157;-66
2023/01/01 23:09:49;;;;;;;15.43;7.05;;;;;;;;;;5040484;27;87320;-67
2023/01/01 23:12:16;;;;;;;16.55;6.03;;;;;;;;;;5039528;27;87482;-66
2023/01/01 23:17:27;;;;;;;16.17;5.72;;;;;;;;;;5032792;28;87760;-66
2023/01/01 23:19:57;;;;;;;12.57;5.25;;;;;;;;;;5041142;27;86622;-67
2023/01/01 23:22:25;;;;;;;13.27;6.10;;;;;;;;;;5038497;28;87833;-67
2023/01/01 23:24:52;;;;;;;19.58;5.93;;;;;;;;;;5042914;27;87435;-67
2023/01/01 23:27:19;;;;;;;23.70;6.28;;;;;;;;;;5040593;27;88330;-67
2023/01/01 23:29:46;;;;;;;15.40;5.57;;;;;;;;;;5035248;27;87432;-67
2023/01/01 23:32:13;;;;;;;18.40;6.28;;;;;;;;;;5029471;27;88490;-67
2023/01/01 23:34:40;;;;;;;21.77;5.65;;;;;;;;;;5030428;28;87787;-64
